| time (UTC) | temp C | wind direction | speed KPH | gust KPH | rain 1hr cm | rain 24hr cm | rain mn cm | humidity % | barometer mb |
| 20260504070125 | 37 | 31 | 0.0 | 0.0 | 0.00 | 0.00 | 0.00 | 8 | |
| 20260504060126 | 36 | 314 | 1.6 | 0.0 | 0.00 | 0.00 | 0.00 | 99 | |
| 20260504050126 | 33 | 235 | 1.6 | 0.0 | 0.00 | 0.00 | 0.00 | 26 | |
| 20260504044626 | 33 | 226 | 3.2 | 0.0 | 0.00 | 0.00 | 0.00 | 26 | |
| 20260504043125 | 32 | 261 | 1.6 | 0.0 | 0.00 | 0.00 | 0.00 | 29 | |
| 20260504041625 | 31 | 94 | 1.6 | 0.0 | 0.00 | 0.00 | 0.00 | 33 | |
| 20260504040125 | 31 | 213 | 1.6 | 0.0 | 0.00 | 0.00 | 0.00 | 36 | |
| 20260504034626 | 31 | 213 | 1.6 | 0.0 | 0.00 | 0.00 | 0.00 | 36 | |
| 20260504033125 | 30 | 257 | 1.6 | 0.0 | 0.00 | 0.00 | 0.00 | 39 | |
| 20260504031625 | 30 | 257 | 1.6 | 0.0 | 0.00 | 0.00 | 0.00 | 40 | |
| 20260504030125 | 27 | 244 | 0.0 | 0.0 | 0.00 | 0.00 | 0.00 | 43 | |
| 20260504024625 | 28 | 244 | 0.0 | 0.0 | 0.00 | 0.00 | 0.00 | 44 | |
| 20260504023126 | 27 | 244 | 0.0 | 0.0 | 0.00 | 0.00 | 0.00 | 46 | |
| 20260504021626 | 26 | 225 | 0.0 | 0.0 | 0.00 | 0.00 | 0.00 | 49 | |
| 20260504020126 | 25 | 225 | 0.0 | 0.0 | 0.00 | 0.00 | 0.00 | 52 | |
| 20260504014626 | 25 | 279 | 1.6 | 0.0 | 0.00 | 0.00 | 0.00 | 55 | |
| 20260504013126 | 25 | 279 | 1.6 | 0.0 | 0.00 | 0.00 | 0.00 | 55 | |
| 20260504011625 | 24 | 216 | 0.0 | 0.0 | 0.00 | 0.00 | 0.00 | 55 | |
| 20260504010126 | 24 | 216 | 0.0 | 0.0 | 0.00 | 0.00 | 0.00 | 55 | |
| 20260504004626 | 23 | 216 | 0.0 | 0.0 | 0.00 | 0.00 | 0.00 | 55 | |
| 20260504003126 | 23 | 263 | 0.0 | 0.0 | 0.00 | 0.00 | 0.00 | 55 | |
| 20260504001626 | 24 | 263 | 0.0 | 0.0 | 0.00 | 0.00 | 0.00 | 54 | |
| 20260504000126 | 24 | 253 | 3.2 | 0.0 | 0.00 | 0.00 | 0.00 | 54 | |
| 20260503234626 | 24 | 253 | 3.2 | 0.0 | 0.00 | 0.00 | 0.00 | 53 | |
| 20260503231625 | 24 | 218 | 1.6 | 0.0 | 0.00 | 0.00 | 0.00 | 51 | |
| 20260503230126 | 24 | 218 | 1.6 | 0.0 | 0.00 | 0.00 | 0.00 | 50 | |
| 20260503224625 | 24 | 242 | 0.0 | 0.0 | 0.00 | 0.00 | 0.00 | 48 | |
| 20260503223125 | 24 | 242 | 0.0 | 0.0 | 0.00 | 0.00 | 0.00 | 48 | |
| 20260503221625 | 24 | 244 | 0.0 | 0.0 | 0.00 | 0.00 | 0.00 | 46 | |
| 20260503220125 | 24 | 244 | 0.0 | 0.0 | 0.00 | 0.00 | 0.00 | 45 | |
| 20260503214626 | 25 | 261 | 1.6 | 0.0 | 0.00 | 0.00 | 0.00 | 45 | |
| 20260503213126 | 25 | 261 | 1.6 | 0.0 | 0.00 | 0.00 | 0.00 | 45 | |
| 20260503211626 | 25 | 261 | 1.6 | 0.0 | 0.00 | 0.00 | 0.00 | 44 | |
| 20260503210125 | 25 | 235 | 1.6 | 0.0 | 0.00 | 0.00 | 0.00 | 43 | |
| 20260503204626 | 25 | 235 | 1.6 | 0.0 | 0.00 | 0.00 | 0.00 | 40 | |
| 20260503203126 | 25 | 277 | 1.6 | 0.0 | 0.00 | 0.00 | 0.00 | 39 | |
| 20260503201626 | 25 | 277 | 1.6 | 0.0 | 0.00 | 0.00 | 0.00 | 38 | |
| 20260503200126 | 26 | 272 | 1.6 | 0.0 | 0.00 | 0.00 | 0.00 | 37 | |
| 20260503194625 | 26 | 258 | 0.0 | 0.0 | 0.00 | 0.00 | 0.00 | 37 | |
| 20260503193126 | 26 | 258 | 0.0 | 0.0 | 0.00 | 0.00 | 0.00 | 38 | |
| 20260503191626 | 26 | 229 | 1.6 | 0.0 | 0.00 | 0.00 | 0.00 | 37 | |
| 20260503190126 | 26 | 229 | 1.6 | 0.0 | 0.00 | 0.00 | 0.00 | 36 | |
| 20260503184625 | 26 | 222 | 0.0 | 0.0 | 0.00 | 0.00 | 0.00 | 35 | |
| 20260503183126 | 27 | 222 | 0.0 | 0.0 | 0.00 | 0.00 | 0.00 | 34 | |
| 20260503181626 | 27 | 222 | 0.0 | 0.0 | 0.00 | 0.00 | 0.00 | 34 | |
| 20260503180126 | 27 | 243 | 1.6 | 0.0 | 0.00 | 0.00 | 0.00 | 33 | |
| 20260503174626 | 27 | 243 | 1.6 | 0.0 | 0.00 | 0.00 | 0.00 | 33 | |
| 20260503173600 | 27 | 239 | 1.6 | 0.0 | 0.00 | 0.00 | 0.00 | 32 | |
| 20260503172002 | 27 | 239 | 1.6 | 0.0 | 0.00 | 0.00 | 0.00 | 32 | |
| 20260503170502 | 27 | 228 | 0.0 | 0.0 | 0.00 | 0.00 | 0.00 | 31 | |
| 20260503150502 | 30 | 193 | 0.0 | 0.0 | 0.00 | 0.00 | 0.00 | 25 | |
| 20260503131300 | 32 | 306 | 1.6 | 0.0 | 0.00 | 0.00 | 0.00 | 99 | |
| 20260503081301 | 39 | 29 | 0.0 | 0.0 | 0.00 | 0.00 | 0.00 | 25 | |
| 20260503072800 | 38 | 237 | 1.6 | 0.0 | 0.00 | 0.00 | 0.00 | 10 | |
| 20260503071300 | 38 | 237 | 1.6 | 0.0 | 0.00 | 0.00 | 0.00 | 10 |